Impacts METAR Board
IDs:

KBFM - Mobile/Downtown Arpt, AL, US

Updated at: 0400 UTC 18 Oct 2018
Potential Impact None Slight Moderate High
Time 17/16Z 17/17Z 17/18Z 17/19Z 17/20Z 17/21Z 17/22Z 17/23Z 18/00Z 18/01Z 18/02Z 18/03Z 18/04Z
Temp77 77 77 79 81 81 81 77 74 74 74 73 70
Dewpt71 70 70 70 71 71 72 71 69 69 69 68 65
Altim30.21 30.20 30.20 30.17 30.16 30.16 30.17 30.18 30.20 30.22 30.24 30.25 30.25
VIS7 6 6 10 10 10 10 10 10 10 10 10 10
CIG10 8 11 24 33 41 -- 21 -- 13 15 14 --
CoverBKNBKNOVCOVCBKNBKNFEWOVCSCTBKNOVCBKNFEW
FltCatMVFRIFRMVFRMVFRVFRVFRVFRMVFRVFRMVFRMVFRMVFRVFR
WX--HZHZ--------------------
WDir20360360360203601035035036036036010
WSpd9 7 7 6 10 9 10 10 11 9 9 12 14
WGst-- -- -- -- -- -- -- -- -- -- -- -- 17
Raw hourly METARs
KBFM 171553Z 02009KT 7SM BKN010 BKN019 25/22 A3021 RMK AO2 SLP228 T02500217
KBFM 171653Z 36007KT 330V040 6SM HZ BKN008 25/21 A3020 RMK AO2 SLP228 T02500211
KBFM 171753Z 36007KT 6SM HZ BKN011 OVC021 25/21 A3020 RMK AO2 SLP224 T02500211 10256 20217 57003
KBFM 171853Z 36006KT 10SM OVC024 26/21 A3017 RMK AO2 SLP216 T02610211
KBFM 171953Z 02010KT 10SM FEW025 BKN033 27/22 A3016 RMK AO2 SLP212 T02720217
KBFM 172053Z 36009KT 10SM BKN041 27/22 A3016 RMK AO2 SLP214 T02720217 55002
KBFM 172153Z 01010KT 10SM FEW021 27/22 A3017 RMK AO2 SLP214 T02720222
KBFM 172253Z 35010KT 10SM OVC021 25/22 A3018 RMK AO2 SLP219 T02500217
KBFM 172353Z 35011KT 10SM SCT021 23/21 A3020 RMK AO2 SLP225 T02330206 10278 20233 53012
KBFM 180053Z 36009KT 10SM BKN013 23/21 A3022 RMK AO2 SLP233 T02330206
KBFM 180204Z 36009KT 10SM OVC015 23/21 A3024 RMK AO2 T02330206
KBFM 180253Z 36012KT 10SM BKN014 23/20 A3025 RMK AO2 SLP241 T02280200 51016
KBFM 180353Z 01014G17KT 10SM FEW013 21/18 A3025 RMK AO2 SLP243 T02110183



Page loaded:  04:59 UTC  |   09:59 PM Pacific  |   10:59 PM Mountain  |   11:59 PM Central  |   12:59 AM Eastern

 

ADVISORIES

FORECASTS

FORECASTS

OBSERVATIONS

USER TOOLS

ABOUT US